sensor_id;sensor_type;location;lat;lon;timestamp;temperature;humidity
13462;DHT22;6803;45.264;5.468;2022-10-15T00:01:54;13.70;99.90
13462;DHT22;6803;45.264;5.468;2022-10-15T00:04:24;13.70;99.90
13462;DHT22;6803;45.264;5.468;2022-10-15T00:06:55;13.70;99.90
13462;DHT22;6803;45.264;5.468;2022-10-15T00:09:26;13.50;99.90
13462;DHT22;6803;45.264;5.468;2022-10-15T00:11:56;13.40;99.90
13462;DHT22;6803;45.264;5.468;2022-10-15T00:14:27;13.20;99.90
13462;DHT22;6803;45.264;5.468;2022-10-15T00:16:58;13.20;99.90
13462;DHT22;6803;45.264;5.468;2022-10-15T00:19:29;13.30;99.90
13462;DHT22;6803;45.264;5.468;2022-10-15T00:21:59;13.30;99.90
13462;DHT22;6803;45.264;5.468;2022-10-15T00:24:31;13.30;99.90
13462;DHT22;6803;45.264;5.468;2022-10-15T00:27:02;13.30;99.90
13462;DHT22;6803;45.264;5.468;2022-10-15T00:29:32;13.40;99.90
13462;DHT22;6803;45.264;5.468;2022-10-15T00:32:03;13.50;99.90
13462;DHT22;6803;45.264;5.468;2022-10-15T00:34:34;13.40;99.90
13462;DHT22;6803;45.264;5.468;2022-10-15T00:37:04;13.40;99.90
13462;DHT22;6803;45.264;5.468;2022-10-15T00:39:35;13.50;99.90
13462;DHT22;6803;45.264;5.468;2022-10-15T00:42:08;13.50;99.90
13462;DHT22;6803;45.264;5.468;2022-10-15T00:47:45;13.60;99.90
13462;DHT22;6803;45.264;5.468;2022-10-15T00:50:19;13.70;99.90
13462;DHT22;6803;45.264;5.468;2022-10-15T00:52:56;13.90;99.90
13462;DHT22;6803;45.264;5.468;2022-10-15T00:55:30;13.50;99.90
13462;DHT22;6803;45.264;5.468;2022-10-15T00:58:04;13.70;99.90
13462;DHT22;6803;45.264;5.468;2022-10-15T01:00:34;13.90;99.90
13462;DHT22;6803;45.264;5.468;2022-10-15T01:03:05;14.00;99.90
13462;DHT22;6803;45.264;5.468;2022-10-15T01:05:37;13.90;99.90
13462;DHT22;6803;45.264;5.468;2022-10-15T01:08:08;13.70;99.90
13462;DHT22;6803;45.264;5.468;2022-10-15T01:10:42;13.60;99.90
13462;DHT22;6803;45.264;5.468;2022-10-15T01:13:17;13.40;99.90
13462;DHT22;6803;45.264;5.468;2022-10-15T01:15:48;13.40;99.90
13462;DHT22;6803;45.264;5.468;2022-10-15T01:18:21;13.60;99.90
13462;DHT22;6803;45.264;5.468;2022-10-15T01:20:58;13.60;99.90
13462;DHT22;6803;45.264;5.468;2022-10-15T01:24:11;13.50;99.90
13462;DHT22;6803;45.264;5.468;2022-10-15T01:33:33;13.10;99.90
13462;DHT22;6803;45.264;5.468;2022-10-15T01:36:10;13.20;99.90
13462;DHT22;6803;45.264;5.468;2022-10-15T01:38:50;13.40;99.90
13462;DHT22;6803;45.264;5.468;2022-10-15T01:41:24;13.30;99.90
13462;DHT22;6803;45.264;5.468;2022-10-15T01:43:58;13.20;99.90
13462;DHT22;6803;45.264;5.468;2022-10-15T01:46:33;13.40;99.90
13462;DHT22;6803;45.264;5.468;2022-10-15T01:49:05;13.70;99.90
13462;DHT22;6803;45.264;5.468;2022-10-15T01:51:37;13.40;99.90
13462;DHT22;6803;45.264;5.468;2022-10-15T01:54:11;13.30;99.90
13462;DHT22;6803;45.264;5.468;2022-10-15T01:56:44;13.50;99.90
13462;DHT22;6803;45.264;5.468;2022-10-15T01:59:19;13.50;99.90
13462;DHT22;6803;45.264;5.468;2022-10-15T02:01:51;13.30;99.90
13462;DHT22;6803;45.264;5.468;2022-10-15T02:04:26;13.10;99.90
13462;DHT22;6803;45.264;5.468;2022-10-15T02:07:01;13.20;99.90
13462;DHT22;6803;45.264;5.468;2022-10-15T02:09:40;13.50;99.90
13462;DHT22;6803;45.264;5.468;2022-10-15T02:12:16;13.50;99.90
13462;DHT22;6803;45.264;5.468;2022-10-15T02:14:50;13.20;99.90
13462;DHT22;6803;45.264;5.468;2022-10-15T02:17:23;13.40;99.90
13462;DHT22;6803;45.264;5.468;2022-10-15T02:19:57;13.40;99.90
13462;DHT22;6803;45.264;5.468;2022-10-15T02:22:31;13.20;99.90
13462;DHT22;6803;45.264;5.468;2022-10-15T02:25:05;13.20;99.90
13462;DHT22;6803;45.264;5.468;2022-10-15T02:27:55;13.10;99.90
13462;DHT22;6803;45.264;5.468;2022-10-15T02:30:27;13.20;99.90
13462;DHT22;6803;45.264;5.468;2022-10-15T02:32:59;13.40;99.90
13462;DHT22;6803;45.264;5.468;2022-10-15T02:35:30;13.20;99.90
13462;DHT22;6803;45.264;5.468;2022-10-15T02:38:04;12.90;99.90
13462;DHT22;6803;45.264;5.468;2022-10-15T02:40:36;12.60;99.90
13462;DHT22;6803;45.264;5.468;2022-10-15T02:43:08;12.40;99.90
13462;DHT22;6803;45.264;5.468;2022-10-15T02:45:39;12.30;99.90
13462;DHT22;6803;45.264;5.468;2022-10-15T02:48:10;12.30;99.90
13462;DHT22;6803;45.264;5.468;2022-10-15T02:50:41;12.50;99.90
13462;DHT22;6803;45.264;5.468;2022-10-15T02:53:12;12.60;99.90
13462;DHT22;6803;45.264;5.468;2022-10-15T02:55:42;12.80;99.90
13462;DHT22;6803;45.264;5.468;2022-10-15T02:58:14;13.00;99.90
13462;DHT22;6803;45.264;5.468;2022-10-15T03:00:44;13.10;99.90
13462;DHT22;6803;45.264;5.468;2022-10-15T03:03:15;13.00;99.90
13462;DHT22;6803;45.264;5.468;2022-10-15T03:05:46;12.90;99.90
13462;DHT22;6803;45.264;5.468;2022-10-15T03:08:16;12.70;99.90
13462;DHT22;6803;45.264;5.468;2022-10-15T03:10:47;12.80;99.90
13462;DHT22;6803;45.264;5.468;2022-10-15T03:13:18;12.90;99.90
13462;DHT22;6803;45.264;5.468;2022-10-15T03:15:48;12.60;99.90
13462;DHT22;6803;45.264;5.468;2022-10-15T03:18:19;12.70;99.90
13462;DHT22;6803;45.264;5.468;2022-10-15T03:20:54;12.60;99.90
13462;DHT22;6803;45.264;5.468;2022-10-15T03:23:25;12.60;99.90
13462;DHT22;6803;45.264;5.468;2022-10-15T03:25:56;12.60;99.90
13462;DHT22;6803;45.264;5.468;2022-10-15T03:28:27;12.70;99.90
13462;DHT22;6803;45.264;5.468;2022-10-15T03:30:57;12.70;99.90
13462;DHT22;6803;45.264;5.468;2022-10-15T03:33:28;12.40;99.90
13462;DHT22;6803;45.264;5.468;2022-10-15T03:35:59;12.20;99.90
13462;DHT22;6803;45.264;5.468;2022-10-15T03:38:29;12.10;99.90
13462;DHT22;6803;45.264;5.468;2022-10-15T03:41:00;12.20;99.90
13462;DHT22;6803;45.264;5.468;2022-10-15T03:43:31;12.40;99.90
13462;DHT22;6803;45.264;5.468;2022-10-15T03:46:03;12.50;99.90
13462;DHT22;6803;45.264;5.468;2022-10-15T03:48:34;12.60;99.90
13462;DHT22;6803;45.264;5.468;2022-10-15T03:51:05;12.70;99.90
13462;DHT22;6803;45.264;5.468;2022-10-15T03:53:36;13.00;99.90
13462;DHT22;6803;45.264;5.468;2022-10-15T03:56:07;12.50;99.90
13462;DHT22;6803;45.264;5.468;2022-10-15T03:58:38;12.60;99.90
13462;DHT22;6803;45.264;5.468;2022-10-15T04:01:10;12.50;99.90
13462;DHT22;6803;45.264;5.468;2022-10-15T04:03:41;12.70;99.90
13462;DHT22;6803;45.264;5.468;2022-10-15T04:06:12;12.70;99.90
13462;DHT22;6803;45.264;5.468;2022-10-15T04:08:43;12.60;99.90
13462;DHT22;6803;45.264;5.468;2022-10-15T04:11:13;12.40;99.90
13462;DHT22;6803;45.264;5.468;2022-10-15T04:13:47;12.40;99.90
13462;DHT22;6803;45.264;5.468;2022-10-15T04:16:18;12.30;99.90
13462;DHT22;6803;45.264;5.468;2022-10-15T04:18:49;12.10;99.90
13462;DHT22;6803;45.264;5.468;2022-10-15T04:21:20;12.10;99.90
13462;DHT22;6803;45.264;5.468;2022-10-15T04:23:50;12.00;99.90
13462;DHT22;6803;45.264;5.468;2022-10-15T04:26:21;11.90;99.90
13462;DHT22;6803;45.264;5.468;2022-10-15T04:31:28;11.80;99.90
13462;DHT22;6803;45.264;5.468;2022-10-15T04:33:59;12.00;99.90
13462;DHT22;6803;45.264;5.468;2022-10-15T04:36:29;12.00;99.90
13462;DHT22;6803;45.264;5.468;2022-10-15T04:39:00;12.00;99.90
13462;DHT22;6803;45.264;5.468;2022-10-15T04:41:32;12.50;99.90
13462;DHT22;6803;45.264;5.468;2022-10-15T04:44:02;12.30;99.90
13462;DHT22;6803;45.264;5.468;2022-10-15T04:46:33;12.10;99.90
13462;DHT22;6803;45.264;5.468;2022-10-15T04:49:04;11.90;99.90
13462;DHT22;6803;45.264;5.468;2022-10-15T04:51:34;12.20;99.90
13462;DHT22;6803;45.264;5.468;2022-10-15T04:54:05;12.50;99.90
13462;DHT22;6803;45.264;5.468;2022-10-15T04:56:36;12.40;99.90
13462;DHT22;6803;45.264;5.468;2022-10-15T04:59:07;12.00;99.90
13462;DHT22;6803;45.264;5.468;2022-10-15T05:01:38;11.80;99.90
13462;DHT22;6803;45.264;5.468;2022-10-15T05:04:10;12.20;99.90
13462;DHT22;6803;45.264;5.468;2022-10-15T05:06:41;12.30;99.90
13462;DHT22;6803;45.264;5.468;2022-10-15T05:09:12;12.00;99.90
13462;DHT22;6803;45.264;5.468;2022-10-15T05:11:42;11.70;99.90
13462;DHT22;6803;45.264;5.468;2022-10-15T05:14:13;12.10;99.90
13462;DHT22;6803;45.264;5.468;2022-10-15T05:16:44;12.00;99.90
13462;DHT22;6803;45.264;5.468;2022-10-15T05:19:15;12.00;99.90
13462;DHT22;6803;45.264;5.468;2022-10-15T05:21:45;12.00;99.90
13462;DHT22;6803;45.264;5.468;2022-10-15T05:24:16;11.80;99.90
13462;DHT22;6803;45.264;5.468;2022-10-15T05:26:47;12.10;99.90
13462;DHT22;6803;45.264;5.468;2022-10-15T05:29:17;12.30;99.90
13462;DHT22;6803;45.264;5.468;2022-10-15T05:31:50;12.00;99.90
13462;DHT22;6803;45.264;5.468;2022-10-15T05:34:20;11.80;99.90
13462;DHT22;6803;45.264;5.468;2022-10-15T05:36:51;11.90;99.90
13462;DHT22;6803;45.264;5.468;2022-10-15T05:42:00;11.60;99.90
13462;DHT22;6803;45.264;5.468;2022-10-15T05:44:31;11.60;99.90
13462;DHT22;6803;45.264;5.468;2022-10-15T05:47:02;11.60;99.90
13462;DHT22;6803;45.264;5.468;2022-10-15T05:49:32;11.60;99.90
13462;DHT22;6803;45.264;5.468;2022-10-15T05:52:03;11.90;99.90
13462;DHT22;6803;45.264;5.468;2022-10-15T05:54:34;11.90;99.90
13462;DHT22;6803;45.264;5.468;2022-10-15T05:57:05;12.00;99.90
13462;DHT22;6803;45.264;5.468;2022-10-15T05:59:35;12.30;99.90
13462;DHT22;6803;45.264;5.468;2022-10-15T06:02:07;12.50;99.90
13462;DHT22;6803;45.264;5.468;2022-10-15T06:04:38;12.10;99.90
13462;DHT22;6803;45.264;5.468;2022-10-15T06:07:09;12.00;99.90
13462;DHT22;6803;45.264;5.468;2022-10-15T06:09:40;11.80;99.90
13462;DHT22;6803;45.264;5.468;2022-10-15T06:12:10;11.70;99.90
13462;DHT22;6803;45.264;5.468;2022-10-15T06:14:42;11.60;99.90
13462;DHT22;6803;45.264;5.468;2022-10-15T06:17:12;11.50;99.90
13462;DHT22;6803;45.264;5.468;2022-10-15T06:19:43;11.80;99.90
13462;DHT22;6803;45.264;5.468;2022-10-15T06:22:14;12.40;99.90
13462;DHT22;6803;45.264;5.468;2022-10-15T06:24:45;12.70;99.90
13462;DHT22;6803;45.264;5.468;2022-10-15T06:27:15;12.90;99.90
13462;DHT22;6803;45.264;5.468;2022-10-15T06:29:46;13.00;99.90
13462;DHT22;6803;45.264;5.468;2022-10-15T06:32:16;12.80;99.90
13462;DHT22;6803;45.264;5.468;2022-10-15T06:34:48;12.40;99.90
13462;DHT22;6803;45.264;5.468;2022-10-15T06:37:19;12.30;99.90
13462;DHT22;6803;45.264;5.468;2022-10-15T06:39:50;12.30;99.90
13462;DHT22;6803;45.264;5.468;2022-10-15T06:42:21;12.30;99.90
13462;DHT22;6803;45.264;5.468;2022-10-15T06:44:52;12.30;99.90
13462;DHT22;6803;45.264;5.468;2022-10-15T06:47:22;12.30;99.90
13462;DHT22;6803;45.264;5.468;2022-10-15T06:49:53;12.40;99.90
13462;DHT22;6803;45.264;5.468;2022-10-15T06:52:24;12.40;99.90
13462;DHT22;6803;45.264;5.468;2022-10-15T06:54:55;12.40;99.90
13462;DHT22;6803;45.264;5.468;2022-10-15T06:57:27;12.60;99.90
13462;DHT22;6803;45.264;5.468;2022-10-15T06:59:57;12.70;99.90
13462;DHT22;6803;45.264;5.468;2022-10-15T07:02:28;12.80;99.90
13462;DHT22;6803;45.264;5.468;2022-10-15T07:04:59;12.90;99.90
13462;DHT22;6803;45.264;5.468;2022-10-15T07:07:29;13.00;99.90
13462;DHT22;6803;45.264;5.468;2022-10-15T07:10:00;13.10;99.90
13462;DHT22;6803;45.264;5.468;2022-10-15T07:12:31;13.10;99.90
13462;DHT22;6803;45.264;5.468;2022-10-15T07:15:01;13.00;99.90
13462;DHT22;6803;45.264;5.468;2022-10-15T07:17:32;13.10;99.90
13462;DHT22;6803;45.264;5.468;2022-10-15T07:20:05;13.20;99.90
13462;DHT22;6803;45.264;5.468;2022-10-15T07:22:36;13.30;99.90
13462;DHT22;6803;45.264;5.468;2022-10-15T07:25:08;13.40;99.90
13462;DHT22;6803;45.264;5.468;2022-10-15T07:27:39;13.50;99.90
13462;DHT22;6803;45.264;5.468;2022-10-15T07:30:11;13.50;99.90
13462;DHT22;6803;45.264;5.468;2022-10-15T07:32:42;13.50;99.90
13462;DHT22;6803;45.264;5.468;2022-10-15T07:35:14;13.50;99.90
13462;DHT22;6803;45.264;5.468;2022-10-15T07:37:45;13.60;99.90
13462;DHT22;6803;45.264;5.468;2022-10-15T07:40:17;13.60;99.90
13462;DHT22;6803;45.264;5.468;2022-10-15T07:42:53;13.70;99.90
13462;DHT22;6803;45.264;5.468;2022-10-15T07:45:25;13.70;99.90
13462;DHT22;6803;45.264;5.468;2022-10-15T07:47:56;13.80;99.90
13462;DHT22;6803;45.264;5.468;2022-10-15T07:50:26;13.90;99.90
13462;DHT22;6803;45.264;5.468;2022-10-15T07:52:58;14.00;99.90
13462;DHT22;6803;45.264;5.468;2022-10-15T07:55:29;14.20;99.90
13462;DHT22;6803;45.264;5.468;2022-10-15T07:58:00;14.30;99.90
13462;DHT22;6803;45.264;5.468;2022-10-15T08:00:51;14.50;99.90
13462;DHT22;6803;45.264;5.468;2022-10-15T08:03:23;14.60;99.90
13462;DHT22;6803;45.264;5.468;2022-10-15T08:05:53;14.50;99.90
13462;DHT22;6803;45.264;5.468;2022-10-15T08:08:24;14.60;99.90
13462;DHT22;6803;45.264;5.468;2022-10-15T08:10:54;14.70;99.90
13462;DHT22;6803;45.264;5.468;2022-10-15T08:13:25;14.80;99.90
13462;DHT22;6803;45.264;5.468;2022-10-15T08:15:57;15.00;99.90
13462;DHT22;6803;45.264;5.468;2022-10-15T08:18:28;15.10;99.90
13462;DHT22;6803;45.264;5.468;2022-10-15T08:21:00;15.20;99.90
13462;DHT22;6803;45.264;5.468;2022-10-15T08:23:31;15.20;99.90
13462;DHT22;6803;45.264;5.468;2022-10-15T08:26:02;15.30;99.90
13462;DHT22;6803;45.264;5.468;2022-10-15T08:28:34;15.40;99.90
13462;DHT22;6803;45.264;5.468;2022-10-15T08:31:05;15.50;99.90
13462;DHT22;6803;45.264;5.468;2022-10-15T08:33:37;15.80;99.90
13462;DHT22;6803;45.264;5.468;2022-10-15T08:36:08;15.90;99.90
13462;DHT22;6803;45.264;5.468;2022-10-15T08:38:39;16.00;99.90
13462;DHT22;6803;45.264;5.468;2022-10-15T08:41:18;16.10;99.90
13462;DHT22;6803;45.264;5.468;2022-10-15T08:43:49;16.10;99.90
13462;DHT22;6803;45.264;5.468;2022-10-15T08:46:24;16.20;99.90
13462;DHT22;6803;45.264;5.468;2022-10-15T08:48:57;16.20;99.90
13462;DHT22;6803;45.264;5.468;2022-10-15T08:51:31;16.20;99.90
13462;DHT22;6803;45.264;5.468;2022-10-15T08:54:04;16.40;99.90
13462;DHT22;6803;45.264;5.468;2022-10-15T08:56:37;16.40;99.90
13462;DHT22;6803;45.264;5.468;2022-10-15T08:59:13;16.80;99.90
13462;DHT22;6803;45.264;5.468;2022-10-15T09:01:47;16.90;99.90
13462;DHT22;6803;45.264;5.468;2022-10-15T09:04:23;17.00;99.90
13462;DHT22;6803;45.264;5.468;2022-10-15T09:06:58;17.10;99.90
13462;DHT22;6803;45.264;5.468;2022-10-15T09:09:32;17.30;99.90
13462;DHT22;6803;45.264;5.468;2022-10-15T09:12:07;17.40;99.90
13462;DHT22;6803;45.264;5.468;2022-10-15T09:14:42;17.30;99.90
13462;DHT22;6803;45.264;5.468;2022-10-15T09:17:17;17.30;99.90
13462;DHT22;6803;45.264;5.468;2022-10-15T09:19:53;17.30;99.90
13462;DHT22;6803;45.264;5.468;2022-10-15T09:22:26;17.50;99.90
13462;DHT22;6803;45.264;5.468;2022-10-15T09:24:57;17.70;99.90
13462;DHT22;6803;45.264;5.468;2022-10-15T09:27:32;17.80;99.90
13462;DHT22;6803;45.264;5.468;2022-10-15T09:30:11;17.90;99.90
13462;DHT22;6803;45.264;5.468;2022-10-15T09:32:41;18.00;99.90
13462;DHT22;6803;45.264;5.468;2022-10-15T09:35:16;18.10;99.90
13462;DHT22;6803;45.264;5.468;2022-10-15T09:37:49;18.00;99.90
13462;DHT22;6803;45.264;5.468;2022-10-15T09:40:34;18.10;99.90
13462;DHT22;6803;45.264;5.468;2022-10-15T09:43:06;18.20;99.90
13462;DHT22;6803;45.264;5.468;2022-10-15T09:45:37;18.20;99.90
13462;DHT22;6803;45.264;5.468;2022-10-15T09:48:14;18.40;99.90
13462;DHT22;6803;45.264;5.468;2022-10-15T09:50:48;18.60;99.90
13462;DHT22;6803;45.264;5.468;2022-10-15T09:53:21;18.90;99.90
13462;DHT22;6803;45.264;5.468;2022-10-15T09:55:59;19.10;99.90
13462;DHT22;6803;45.264;5.468;2022-10-15T09:58:29;19.20;99.90
13462;DHT22;6803;45.264;5.468;2022-10-15T10:01:03;19.30;99.90
13462;DHT22;6803;45.264;5.468;2022-10-15T10:03:35;19.20;99.90
13462;DHT22;6803;45.264;5.468;2022-10-15T10:06:07;19.10;99.90
13462;DHT22;6803;45.264;5.468;2022-10-15T10:08:45;19.20;99.90
13462;DHT22;6803;45.264;5.468;2022-10-15T10:11:13;19.10;99.90
13462;DHT22;6803;45.264;5.468;2022-10-15T10:13:50;19.20;99.90
13462;DHT22;6803;45.264;5.468;2022-10-15T10:16:21;19.10;99.90
13462;DHT22;6803;45.264;5.468;2022-10-15T10:19:10;19.20;99.90
13462;DHT22;6803;45.264;5.468;2022-10-15T10:21:38;19.40;99.90
13462;DHT22;6803;45.264;5.468;2022-10-15T10:24:25;19.50;99.90
13462;DHT22;6803;45.264;5.468;2022-10-15T10:26:59;19.90;99.90
13462;DHT22;6803;45.264;5.468;2022-10-15T10:29:32;19.90;99.90
13462;DHT22;6803;45.264;5.468;2022-10-15T10:32:15;19.80;99.90
13462;DHT22;6803;45.264;5.468;2022-10-15T10:34:44;19.80;99.90
13462;DHT22;6803;45.264;5.468;2022-10-15T10:37:16;19.90;99.90
13462;DHT22;6803;45.264;5.468;2022-10-15T10:39:54;19.90;99.90
13462;DHT22;6803;45.264;5.468;2022-10-15T10:42:36;20.10;99.90
13462;DHT22;6803;45.264;5.468;2022-10-15T10:45:22;20.30;99.90
13462;DHT22;6803;45.264;5.468;2022-10-15T10:47:54;20.40;99.90
13462;DHT22;6803;45.264;5.468;2022-10-15T10:50:31;20.50;99.90
13462;DHT22;6803;45.264;5.468;2022-10-15T10:53:23;20.70;99.90
13462;DHT22;6803;45.264;5.468;2022-10-15T10:55:55;20.90;99.90
13462;DHT22;6803;45.264;5.468;2022-10-15T10:58:28;21.00;99.90
13462;DHT22;6803;45.264;5.468;2022-10-15T11:01:00;21.20;99.90
13462;DHT22;6803;45.264;5.468;2022-10-15T11:03:35;21.40;99.90
13462;DHT22;6803;45.264;5.468;2022-10-15T11:09:21;21.60;99.90
13462;DHT22;6803;45.264;5.468;2022-10-15T11:12:02;21.60;99.90
13462;DHT22;6803;45.264;5.468;2022-10-15T11:14:38;21.60;99.90
13462;DHT22;6803;45.264;5.468;2022-10-15T11:17:13;21.90;99.90
13462;DHT22;6803;45.264;5.468;2022-10-15T11:22:26;22.30;99.90
13462;DHT22;6803;45.264;5.468;2022-10-15T11:27:44;23.00;99.90
13462;DHT22;6803;45.264;5.468;2022-10-15T11:30:24;23.20;99.90
13462;DHT22;6803;45.264;5.468;2022-10-15T11:32:57;23.40;99.90
13462;DHT22;6803;45.264;5.468;2022-10-15T11:38:16;23.70;99.90
13462;DHT22;6803;45.264;5.468;2022-10-15T11:43:34;24.00;99.90
13462;DHT22;6803;45.264;5.468;2022-10-15T11:46:08;23.80;99.90
13462;DHT22;6803;45.264;5.468;2022-10-15T11:48:47;23.80;99.90
13462;DHT22;6803;45.264;5.468;2022-10-15T11:51:21;23.80;99.90
13462;DHT22;6803;45.264;5.468;2022-10-15T11:54:04;24.30;99.90
13462;DHT22;6803;45.264;5.468;2022-10-15T11:56:40;24.40;99.90
13462;DHT22;6803;45.264;5.468;2022-10-15T11:59:21;24.70;99.90
13462;DHT22;6803;45.264;5.468;2022-10-15T12:01:53;24.80;99.90
13462;DHT22;6803;45.264;5.468;2022-10-15T12:09:45;24.60;99.90
13462;DHT22;6803;45.264;5.468;2022-10-15T12:12:27;24.40;99.90
13462;DHT22;6803;45.264;5.468;2022-10-15T12:15:11;24.80;99.90
13462;DHT22;6803;45.264;5.468;2022-10-15T12:17:44;25.30;99.90
13462;DHT22;6803;45.264;5.468;2022-10-15T12:20:16;25.30;99.90
13462;DHT22;6803;45.264;5.468;2022-10-15T12:22:58;25.50;99.90
13462;DHT22;6803;45.264;5.468;2022-10-15T12:25:44;25.60;99.90
13462;DHT22;6803;45.264;5.468;2022-10-15T12:28:19;25.30;99.90
13462;DHT22;6803;45.264;5.468;2022-10-15T12:33:51;25.60;99.90
13462;DHT22;6803;45.264;5.468;2022-10-15T12:36:25;25.60;99.90
13462;DHT22;6803;45.264;5.468;2022-10-15T12:38:59;25.50;99.90
13462;DHT22;6803;45.264;5.468;2022-10-15T12:41:38;25.60;99.90
13462;DHT22;6803;45.264;5.468;2022-10-15T12:44:16;25.60;99.90
13462;DHT22;6803;45.264;5.468;2022-10-15T12:46:47;25.20;99.90
13462;DHT22;6803;45.264;5.468;2022-10-15T12:52:53;25.60;99.90
13462;DHT22;6803;45.264;5.468;2022-10-15T12:55:28;25.80;99.90
13462;DHT22;6803;45.264;5.468;2022-10-15T12:58:04;25.40;99.90
13462;DHT22;6803;45.264;5.468;2022-10-15T13:00:43;24.60;99.90
13462;DHT22;6803;45.264;5.468;2022-10-15T13:03:36;24.60;99.90
13462;DHT22;6803;45.264;5.468;2022-10-15T13:09:28;23.90;99.90
13462;DHT22;6803;45.264;5.468;2022-10-15T13:12:05;23.90;99.90
13462;DHT22;6803;45.264;5.468;2022-10-15T13:14:38;23.90;99.90
13462;DHT22;6803;45.264;5.468;2022-10-15T13:19:55;23.70;99.90
13462;DHT22;6803;45.264;5.468;2022-10-15T13:22:29;23.70;99.90
13462;DHT22;6803;45.264;5.468;2022-10-15T13:25:00;23.30;99.90
13462;DHT22;6803;45.264;5.468;2022-10-15T13:27:32;23.40;99.90
13462;DHT22;6803;45.264;5.468;2022-10-15T13:30:11;23.80;99.90
13462;DHT22;6803;45.264;5.468;2022-10-15T13:35:26;23.50;99.90
13462;DHT22;6803;45.264;5.468;2022-10-15T13:37:58;23.70;99.90
13462;DHT22;6803;45.264;5.468;2022-10-15T13:40:30;23.50;99.90
13462;DHT22;6803;45.264;5.468;2022-10-15T13:43:03;23.50;99.90
13462;DHT22;6803;45.264;5.468;2022-10-15T13:45:35;23.90;99.90
13462;DHT22;6803;45.264;5.468;2022-10-15T13:48:10;23.90;99.90
13462;DHT22;6803;45.264;5.468;2022-10-15T13:50:42;23.60;99.90
13462;DHT22;6803;45.264;5.468;2022-10-15T13:53:15;23.30;99.90
13462;DHT22;6803;45.264;5.468;2022-10-15T13:55:48;23.20;99.90
13462;DHT22;6803;45.264;5.468;2022-10-15T13:58:22;23.20;99.90
13462;DHT22;6803;45.264;5.468;2022-10-15T14:00:57;22.90;99.90
13462;DHT22;6803;45.264;5.468;2022-10-15T14:03:30;22.70;99.90
13462;DHT22;6803;45.264;5.468;2022-10-15T14:06:14;22.80;99.90
13462;DHT22;6803;45.264;5.468;2022-10-15T14:08:46;22.70;99.90
13462;DHT22;6803;45.264;5.468;2022-10-15T14:11:17;22.60;99.90
13462;DHT22;6803;45.264;5.468;2022-10-15T14:13:49;22.50;99.90
13462;DHT22;6803;45.264;5.468;2022-10-15T14:16:23;22.30;99.90
13462;DHT22;6803;45.264;5.468;2022-10-15T14:21:35;22.10;99.90
13462;DHT22;6803;45.264;5.468;2022-10-15T14:24:10;21.90;99.90
13462;DHT22;6803;45.264;5.468;2022-10-15T14:26:42;21.70;99.90
13462;DHT22;6803;45.264;5.468;2022-10-15T14:29:18;21.70;99.90
13462;DHT22;6803;45.264;5.468;2022-10-15T14:31:49;21.70;99.90
13462;DHT22;6803;45.264;5.468;2022-10-15T14:34:40;21.70;99.90
13462;DHT22;6803;45.264;5.468;2022-10-15T14:37:36;21.60;99.90
13462;DHT22;6803;45.264;5.468;2022-10-15T14:40:19;21.80;99.90
13462;DHT22;6803;45.264;5.468;2022-10-15T14:43:01;21.60;99.90
13462;DHT22;6803;45.264;5.468;2022-10-15T14:48:18;21.30;99.90
13462;DHT22;6803;45.264;5.468;2022-10-15T14:50:50;21.30;99.90
13462;DHT22;6803;45.264;5.468;2022-10-15T14:53:23;21.20;99.90
13462;DHT22;6803;45.264;5.468;2022-10-15T14:56:00;21.00;99.90
13462;DHT22;6803;45.264;5.468;2022-10-15T14:58:30;21.00;99.90
13462;DHT22;6803;45.264;5.468;2022-10-15T15:01:02;20.90;99.90
13462;DHT22;6803;45.264;5.468;2022-10-15T15:03:41;20.80;99.90
13462;DHT22;6803;45.264;5.468;2022-10-15T15:06:13;20.80;99.90
13462;DHT22;6803;45.264;5.468;2022-10-15T15:08:44;20.80;99.90
13462;DHT22;6803;45.264;5.468;2022-10-15T15:13:56;20.60;99.90
13462;DHT22;6803;45.264;5.468;2022-10-15T15:16:26;20.70;99.90
13462;DHT22;6803;45.264;5.468;2022-10-15T15:18:57;20.70;99.90
13462;DHT22;6803;45.264;5.468;2022-10-15T15:21:28;20.80;99.90
13462;DHT22;6803;45.264;5.468;2022-10-15T15:23:58;20.70;99.90
13462;DHT22;6803;45.264;5.468;2022-10-15T15:26:29;20.90;99.90
13462;DHT22;6803;45.264;5.468;2022-10-15T15:29:00;20.90;99.90
13462;DHT22;6803;45.264;5.468;2022-10-15T15:31:31;20.90;99.90
13462;DHT22;6803;45.264;5.468;2022-10-15T15:34:02;20.70;99.90
13462;DHT22;6803;45.264;5.468;2022-10-15T15:36:32;20.70;99.90
13462;DHT22;6803;45.264;5.468;2022-10-15T15:39:03;20.60;99.90
13462;DHT22;6803;45.264;5.468;2022-10-15T15:41:34;20.70;99.90
13462;DHT22;6803;45.264;5.468;2022-10-15T15:44:05;20.70;99.90
13462;DHT22;6803;45.264;5.468;2022-10-15T15:46:36;20.80;99.90
13462;DHT22;6803;45.264;5.468;2022-10-15T15:49:06;20.70;99.90
13462;DHT22;6803;45.264;5.468;2022-10-15T15:51:40;20.50;99.90
13462;DHT22;6803;45.264;5.468;2022-10-15T15:56:51;20.40;99.90
13462;DHT22;6803;45.264;5.468;2022-10-15T15:59:22;20.30;99.90
13462;DHT22;6803;45.264;5.468;2022-10-15T16:01:54;20.30;99.90
13462;DHT22;6803;45.264;5.468;2022-10-15T16:07:03;20.20;99.90
13462;DHT22;6803;45.264;5.468;2022-10-15T16:09:36;20.30;99.90
13462;DHT22;6803;45.264;5.468;2022-10-15T16:12:07;20.30;99.90
13462;DHT22;6803;45.264;5.468;2022-10-15T16:14:37;20.30;99.90
13462;DHT22;6803;45.264;5.468;2022-10-15T16:17:08;20.10;99.90
13462;DHT22;6803;45.264;5.468;2022-10-15T16:19:41;20.10;99.90
13462;DHT22;6803;45.264;5.468;2022-10-15T16:22:15;20.10;99.90
13462;DHT22;6803;45.264;5.468;2022-10-15T16:24:46;20.00;99.90
13462;DHT22;6803;45.264;5.468;2022-10-15T16:27:17;19.80;99.90
13462;DHT22;6803;45.264;5.468;2022-10-15T16:29:48;19.70;99.90
13462;DHT22;6803;45.264;5.468;2022-10-15T16:32:19;19.60;99.90
13462;DHT22;6803;45.264;5.468;2022-10-15T16:34:49;19.50;99.90
13462;DHT22;6803;45.264;5.468;2022-10-15T16:37:20;19.40;99.90
13462;DHT22;6803;45.264;5.468;2022-10-15T16:39:51;19.40;99.90
13462;DHT22;6803;45.264;5.468;2022-10-15T16:42:22;19.20;99.90
13462;DHT22;6803;45.264;5.468;2022-10-15T16:44:53;19.10;99.90
13462;DHT22;6803;45.264;5.468;2022-10-15T16:47:24;18.90;99.90
13462;DHT22;6803;45.264;5.468;2022-10-15T16:49:55;18.80;99.90
13462;DHT22;6803;45.264;5.468;2022-10-15T16:52:27;18.70;99.90
13462;DHT22;6803;45.264;5.468;2022-10-15T16:54:58;18.80;99.90
13462;DHT22;6803;45.264;5.468;2022-10-15T16:57:29;18.80;99.90
13462;DHT22;6803;45.264;5.468;2022-10-15T17:00:00;18.70;99.90
13462;DHT22;6803;45.264;5.468;2022-10-15T17:02:31;18.70;99.90
13462;DHT22;6803;45.264;5.468;2022-10-15T17:05:03;18.60;99.90
13462;DHT22;6803;45.264;5.468;2022-10-15T17:07:34;18.50;99.90
13462;DHT22;6803;45.264;5.468;2022-10-15T17:10:08;18.50;99.90
13462;DHT22;6803;45.264;5.468;2022-10-15T17:12:41;18.50;99.90
13462;DHT22;6803;45.264;5.468;2022-10-15T17:15:12;18.40;99.90
13462;DHT22;6803;45.264;5.468;2022-10-15T17:17:46;18.40;99.90
13462;DHT22;6803;45.264;5.468;2022-10-15T17:20:18;18.30;99.90
13462;DHT22;6803;45.264;5.468;2022-10-15T17:22:49;18.30;99.90
13462;DHT22;6803;45.264;5.468;2022-10-15T17:25:20;18.30;99.90